Time;durP1;ratioP1;P1;durP2;ratioP2;P2;SDS_P1;SDS_P2;PMS_P1;PMS_P2;Temp;Humidity;BMP_temperature;BMP_pressure;BME280_temperature;BME280_humidity;BME280_pressure;Samples;Min_cycle;Max_cycle;Signal;HPM_P1;HPM_P2
2022/12/25 00:01:15;;;;;;;;;;;;;;;12.20;100.00;100227.25;5076012;28;20344;-62
2022/12/25 00:03:40;;;;;;;;;;;;;;;12.20;100.00;100232.56;5089821;28;19947;-63
2022/12/25 00:06:06;;;;;;;;;;;;;;;12.25;100.00;100233.28;5114738;28;19931;-63
2022/12/25 00:08:31;;;;;;;;;;;;;;;12.24;100.00;100239.53;5110201;28;21836;-62
2022/12/25 00:11:00;;;;;;;;;;;;;;;12.27;100.00;100236.78;5089726;28;20342;-62
2022/12/25 00:13:26;;;;;;;;;;;;;;;12.29;100.00;100237.56;5094366;28;19927;-63
2022/12/25 00:15:51;;;;;;;;;;;;;;;12.31;100.00;100235.72;5089875;28;19982;-63
2022/12/25 00:18:17;;;;;;;;;;;;;;;12.34;100.00;100240.94;5094276;28;19926;-63
2022/12/25 00:20:42;;;;;;;;;;;;;;;12.35;100.00;100244.47;5090086;28;19938;-62
2022/12/25 00:23:07;;;;;;;;;;;;;;;12.34;100.00;100229.41;5094140;28;20027;-62
2022/12/25 00:25:33;;;;;;;;;;;;;;;12.32;100.00;100232.09;5093999;28;20121;-62
2022/12/25 00:27:58;;;;;;;;;;;;;;;12.25;100.00;100230.63;5093904;28;20382;-63
2022/12/25 00:30:23;;;;;;;;;;;;;;;12.17;100.00;100227.34;5087412;28;19945;-63
2022/12/25 00:32:48;;;;;;;;;;;;;;;12.20;100.00;100229.91;5076379;28;19930;-62
2022/12/25 00:35:14;;;;;;;;;;;;;;;12.19;100.00;100225.47;5072075;28;20318;-63
2022/12/25 00:37:39;;;;;;;;;;;;;;;12.22;100.00;100212.06;5073692;28;20021;-63
2022/12/25 00:40:05;;;;;;;;;;;;;;;12.19;100.00;100209.47;5081781;28;19975;-63
2022/12/25 00:42:30;;;;;;;;;;;;;;;12.21;100.00;100217.44;5093709;28;19930;-64
2022/12/25 00:44:55;;;;;;;;;;;;;;;12.16;100.00;100219.41;5089429;28;20351;-63
2022/12/25 00:47:20;;;;;;;;;;;;;;;12.20;100.00;100221.91;5073363;28;19958;-63
2022/12/25 00:49:46;;;;;;;;;;;;;;;12.21;100.00;100218.31;5073442;28;19939;-63
2022/12/25 00:52:11;;;;;;;;;;;;;;;12.31;100.00;100219.72;5073273;28;20036;-63
2022/12/25 00:54:36;;;;;;;;;;;;;;;12.27;100.00;100211.88;5075637;28;19937;-63
2022/12/25 00:57:02;;;;;;;;;;;;;;;12.23;100.00;100221.78;5084299;28;19934;-64
2022/12/25 00:59:30;;;;;;;;;;;;;;;12.21;100.00;100217.44;5093313;28;20043;-63
2022/12/25 01:01:55;;;;;;;;;;;;;;;12.24;100.00;100226.19;5093454;28;20308;-63
2022/12/25 01:04:20;;;;;;;;;;;;;;;12.26;100.00;100221.69;5081287;28;20008;-64
2022/12/25 01:06:45;;;;;;;;;;;;;;;12.31;100.00;100219.72;5075606;28;20005;-63
2022/12/25 01:11:55;;;;;;;;;;;;;;;12.35;100.00;100224.03;5072351;28;20005;-64
2022/12/25 01:14:20;;;;;;;;;;;;;;;12.35;100.00;100226.69;5077247;28;19938;-63
2022/12/25 01:16:45;;;;;;;;;;;;;;;12.35;100.00;100226.69;5092899;28;19938;-63
2022/12/25 01:19:10;;;;;;;;;;;;;;;12.37;100.00;100230.16;5078174;28;19964;-63
2022/12/25 01:21:36;;;;;;;;;;;;;;;12.36;100.00;100222.19;5072827;28;19929;-63
2022/12/25 01:24:01;;;;;;;;;;;;;;;12.36;100.00;100225.75;5071422;28;19936;-63
2022/12/25 01:26:27;;;;;;;;;;;;;;;12.38;100.00;100221.25;5071982;28;19930;-63
2022/12/25 01:28:52;;;;;;;;;;;;;;;12.37;100.00;100224.81;5075447;28;19974;-62
2022/12/25 01:31:19;;;;;;;;;;;;;;;12.39;100.00;100227.47;5073441;28;19958;-63
2022/12/25 01:33:45;;;;;;;;;;;;;;;12.39;100.00;100227.47;5089429;28;19929;-62
2022/12/25 01:36:14;;;;;;;;;;;;;;;12.41;100.00;100228.25;5089998;28;19951;-63
2022/12/25 01:38:40;;;;;;;;;;;;;;;12.42;100.00;100230.84;5077578;28;20019;-63
2022/12/25 01:41:05;;;;;;;;;;;;;;;12.41;100.00;100229.13;5076922;28;20079;-62
2022/12/25 01:43:31;;;;;;;;;;;;;;;12.40;100.00;100232.72;5072342;28;20122;-63
2022/12/25 01:45:56;;;;;;;;;;;;;;;12.40;100.00;100234.53;5074043;28;19936;-63
2022/12/25 01:48:33;;;;;;;;;;;;;;;12.40;100.00;100234.53;5072191;28;19972;-63
2022/12/25 01:51:13;;;;;;;;;;;;;;;12.39;100.00;100232.78;5074973;28;20425;-62
2022/12/25 01:53:39;;;;;;;;;;;;;;;12.38;100.00;100223.91;5091420;28;20276;-63
2022/12/25 01:56:05;;;;;;;;;;;;;;;12.38;100.00;100223.91;5091242;28;19936;-63
2022/12/25 01:58:31;;;;;;;;;;;;;;;12.37;100.00;100219.47;5073569;28;19937;-62
2022/12/25 02:00:56;;;;;;;;;;;;;;;12.39;100.00;100222.97;5071937;28;19940;-63
2022/12/25 02:03:22;;;;;;;;;;;;;;;12.37;100.00;100219.47;5087670;28;20030;-63
2022/12/25 02:05:47;;;;;;;;;;;;;;;12.38;100.00;100209.69;5106780;28;19932;-62
2022/12/25 02:08:15;;;;;;;;;;;;;;;12.39;100.00;100212.28;5072584;28;19985;-64
2022/12/25 02:10:42;;;;;;;;;;;;;;;12.38;100.00;100199.91;5083737;28;19954;-62
2022/12/25 02:13:08;;;;;;;;;;;;;;;12.33;100.00;100201.88;5092369;28;20285;-61
2022/12/25 02:15:42;;;;;;;;;;;;;;;12.31;100.00;100200.16;5086186;28;19943;-62
2022/12/25 02:18:26;;;;;;;;;;;;;;;12.21;100.00;100193.44;5071703;28;19936;-62
2022/12/25 02:21:02;;;;;;;;;;;;;;;12.16;100.00;100198.94;5090417;28;19929;-62
2022/12/25 02:23:27;;;;;;;;;;;;;;;12.11;100.00;100197.38;5092032;28;19978;-62
2022/12/25 02:26:01;;;;;;;;;;;;;;;12.07;100.00;100191.28;5077210;28;20346;-63
2022/12/25 02:28:29;;;;;;;;;;;;;;;12.02;100.00;100193.22;5074314;28;20029;-62
2022/12/25 02:31:06;;;;;;;;;;;;;;;11.93;100.00;100199.75;5071377;28;20400;-62
2022/12/25 02:36:28;;;;;;;;;;;;;;;11.89;100.00;100213.25;5073732;28;19944;-62
2022/12/25 02:41:42;;;;;;;;;;;;;;;11.85;100.00;100203.59;5073834;28;20053;-63
2022/12/25 03:11:58;;;;;;;;;;;;;;;11.78;100.00;100167.44;5077591;28;20316;-63
2022/12/25 03:17:07;;;;;;;;;;;;;;;11.79;100.00;100166.53;5075499;28;20048;-62
2022/12/25 03:27:53;;;;;;;;;;;;;;;11.73;100.00;100174.72;5083137;28;19960;-63
2022/12/25 03:33:16;;;;;;;;;;;;;;;11.70;100.00;100173.03;5077298;28;19944;-62
2022/12/25 03:36:04;;;;;;;;;;;;;;;11.67;100.00;100166.94;5078905;28;20302;-61
2022/12/25 04:36:35;;;;;;;;;;;;;;;11.48;100.00;100118.72;5075742;28;19986;-62
2022/12/25 04:39:00;;;;;;;;;;;;;;;11.48;100.00;100120.53;5072952;28;20397;-62
2022/12/25 04:41:26;;;;;;;;;;;;;;;11.48;100.00;100115.19;5090775;28;19938;-63
2022/12/25 04:43:51;;;;;;;;;;;;;;;11.47;100.00;100116.09;5075287;28;19939;-62
2022/12/25 04:46:16;;;;;;;;;;;;;;;11.47;100.00;100100.13;5072701;28;19931;-62
2022/12/25 04:48:41;;;;;;;;;;;;;;;11.46;100.00;100111.72;5074894;28;19959;-63
2022/12/25 04:51:11;;;;;;;;;;;;;;;11.46;100.00;100104.59;5073702;28;19951;-62
2022/12/25 04:53:36;;;;;;;;;;;;;;;11.47;100.00;100110.78;5073126;28;19987;-63
2022/12/25 04:56:01;;;;;;;;;;;;;;;11.49;100.00;100108.94;5084932;28;19957;-62
2022/12/25 04:58:27;;;;;;;;;;;;;;;11.48;100.00;100104.53;5093408;28;19933;-63
2022/12/25 05:00:52;;;;;;;;;;;;;;;11.48;100.00;100099.22;5093604;28;19948;-62
2022/12/25 05:03:17;;;;;;;;;;;;;;;11.46;100.00;100098.41;5097729;28;20323;-62
2022/12/25 05:05:42;;;;;;;;;;;;;;;11.47;100.00;100108.09;5076497;28;19962;-63
2022/12/25 05:08:08;;;;;;;;;;;;;;;11.47;100.00;100110.78;5084691;28;19936;-62
2022/12/25 05:10:33;;;;;;;;;;;;;;;11.46;100.00;100104.59;5083300;28;19936;-62
2022/12/25 05:12:58;;;;;;;;;;;;;;;11.47;100.00;100105.44;5072966;28;19971;-62
2022/12/25 05:15:23;;;;;;;;;;;;;;;11.52;100.00;100098.16;5072896;28;19935;-63
2022/12/25 05:17:49;;;;;;;;;;;;;;;11.48;100.00;100089.41;5074879;28;20406;-62
2022/12/25 05:20:14;;;;;;;;;;;;;;;11.46;100.00;100090.41;5072282;28;19932;-62
2022/12/25 05:22:40;;;;;;;;;;;;;;;11.43;100.00;100085.19;5074371;28;20036;-63
2022/12/25 05:25:06;;;;;;;;;;;;;;;11.42;100.00;100086.97;5072753;28;20299;-62
2022/12/25 05:27:31;;;;;;;;;;;;;;;11.44;100.00;100084.25;5074022;28;19936;-63
2022/12/25 05:29:57;;;;;;;;;;;;;;;11.46;100.00;100069.09;5073350;28;20403;-63
2022/12/25 05:32:22;;;;;;;;;;;;;;;11.53;100.00;100073.28;5072569;28;20045;-62
2022/12/25 05:34:47;;;;;;;;;;;;;;;11.57;100.00;100064.25;5082425;28;19929;-63
2022/12/25 05:37:12;;;;;;;;;;;;;;;11.62;100.00;100067.63;5092844;28;20353;-61
2022/12/25 05:39:38;;;;;;;;;;;;;;;11.60;100.00;100058.81;5084262;28;19942;-63
2022/12/25 05:42:03;;;;;;;;;;;;;;;11.60;100.00;100058.81;5089622;28;19940;-63
2022/12/25 05:44:28;;;;;;;;;;;;;;;11.60;100.00;100053.47;5072199;28;19934;-62
2022/12/25 05:46:53;;;;;;;;;;;;;;;11.60;100.00;100057.03;5072348;28;19928;-62
2022/12/25 05:49:19;;;;;;;;;;;;;;;11.60;100.00;100050.81;5074490;28;20018;-62
2022/12/25 05:51:44;;;;;;;;;;;;;;;11.62;100.00;100056.97;5072208;28;20426;-62
2022/12/25 05:54:09;;;;;;;;;;;;;;;11.45;100.00;100043.41;5074089;28;20084;-63
2022/12/25 05:56:35;;;;;;;;;;;;;;;11.41;100.00;100039.09;5073247;28;19932;-62
2022/12/25 05:59:01;;;;;;;;;;;;;;;11.50;100.00;100038.75;5092194;28;19937;-63
2022/12/25 06:01:27;;;;;;;;;;;;;;;11.50;100.00;100041.41;5075001;28;19936;-63
2022/12/25 06:03:52;;;;;;;;;;;;;;;11.38;100.00;100039.19;5090803;28;19949;-63
2022/12/25 06:06:17;;;;;;;;;;;;;;;11.34;100.00;100045.53;5096456;28;19989;-63
2022/12/25 06:08:43;;;;;;;;;;;;;;;11.32;100.00;100042.06;5071877;28;19983;-62
2022/12/25 06:11:08;;;;;;;;;;;;;;;11.29;100.00;100042.16;5087787;28;19954;-62
2022/12/25 06:13:34;;;;;;;;;;;;;;;11.26;100.00;100037.84;5088348;28;19927;-62
2022/12/25 06:16:04;;;;;;;;;;;;;;;11.26;100.00;100031.63;5081388;28;20352;-63
2022/12/25 06:18:29;;;;;;;;;;;;;;;11.24;100.00;100042.34;5071787;28;20021;-62
2022/12/25 06:20:55;;;;;;;;;;;;;;;11.24;100.00;100041.47;5074005;28;20035;-63
2022/12/25 06:23:20;;;;;;;;;;;;;;;11.24;100.00;100041.47;5071334;28;19938;-63
2022/12/25 06:25:45;;;;;;;;;;;;;;;11.23;100.00;100039.72;5071157;28;20018;-62
2022/12/25 06:28:10;;;;;;;;;;;;;;;11.24;100.00;100049.44;5070674;28;20329;-63
2022/12/25 06:30:36;;;;;;;;;;;;;;;11.22;100.00;100056.66;5072843;28;19938;-63
2022/12/25 06:33:01;;;;;;;;;;;;;;;11.22;100.00;100046.00;5070504;28;19940;-63
2022/12/25 06:35:26;;;;;;;;;;;;;;;11.23;100.00;100048.59;5073685;28;19943;-62
2022/12/25 06:37:52;;;;;;;;;;;;;;;11.26;100.00;100052.94;5072008;28;20395;-63
2022/12/25 06:40:17;;;;;;;;;;;;;;;11.22;100.00;100041.53;5079446;28;19940;-63
2022/12/25 06:42:43;;;;;;;;;;;;;;;11.17;100.00;100045.28;5088544;28;19942;-63
2022/12/25 06:45:08;;;;;;;;;;;;;;;11.16;100.00;100047.06;5087404;28;19940;-62
2022/12/25 06:47:34;;;;;;;;;;;;;;;11.14;100.00;100056.88;5091544;28;20012;-63
2022/12/25 06:49:59;;;;;;;;;;;;;;;11.14;100.00;100053.34;5091627;28;19996;-63
2022/12/25 06:52:24;;;;;;;;;;;;;;;11.16;100.00;100052.38;5073300;28;20065;-63
2022/12/25 06:54:50;;;;;;;;;;;;;;;11.13;100.00;100051.63;5071213;28;19923;-63
2022/12/25 06:57:16;;;;;;;;;;;;;;;11.09;100.00;100049.97;5073933;28;19938;-63
2022/12/25 06:59:41;;;;;;;;;;;;;;;11.08;100.00;100053.56;5071423;28;20042;-62
2022/12/25 07:02:11;;;;;;;;;;;;;;;11.06;100.00;100055.41;5071227;28;20381;-62
2022/12/25 07:04:40;;;;;;;;;;;;;;;10.97;100.00;100045.94;5099294;28;19952;-62
2022/12/25 07:07:06;;;;;;;;;;;;;;;10.96;100.00;100043.31;5089027;28;19986;-63
2022/12/25 07:09:32;;;;;;;;;;;;;;;10.97;100.00;100042.44;5091368;28;19934;-62
2022/12/25 07:12:05;;;;;;;;;;;;;;;10.94;100.00;100034.56;5078172;28;19954;-63
2022/12/25 07:14:30;;;;;;;;;;;;;;;10.91;100.00;100038.16;5077887;28;20641;-63
2022/12/25 07:16:55;;;;;;;;;;;;;;;10.90;100.00;100032.91;5091551;28;19934;-63
2022/12/25 07:19:20;;;;;;;;;;;;;;;10.89;100.00;100026.69;5091305;28;19927;-63
2022/12/25 07:21:46;;;;;;;;;;;;;;;10.88;100.00;100029.41;5073439;28;19941;-63
2022/12/25 07:24:11;;;;;;;;;;;;;;;10.82;100.00;100025.19;5071093;28;19932;-62
2022/12/25 07:26:36;;;;;;;;;;;;;;;10.80;100.00;100016.38;5078138;28;19942;-62
2022/12/25 07:29:02;;;;;;;;;;;;;;;10.78;100.00;100022.66;5070782;28;19984;-63
2022/12/25 07:31:27;;;;;;;;;;;;;;;10.77;100.00;100020.94;5068684;28;19954;-62
2022/12/25 07:33:53;;;;;;;;;;;;;;;10.77;100.00;100020.94;5068474;28;19940;-62
2022/12/25 07:36:18;;;;;;;;;;;;;;;10.79;100.00;100035.06;5070563;28;20351;-63
2022/12/25 07:38:46;;;;;;;;;;;;;;;10.83;100.00;100042.00;5070913;28;19933;-63
2022/12/25 07:41:12;;;;;;;;;;;;;;;10.85;100.00;100041.03;5078100;28;19939;-63
2022/12/25 07:43:37;;;;;;;;;;;;;;;10.86;100.00;100052.53;5068510;28;19973;-63
2022/12/25 07:46:03;;;;;;;;;;;;;;;10.87;100.00;100055.19;5073392;28;20410;-63
2022/12/25 07:48:29;;;;;;;;;;;;;;;10.88;100.00;100054.25;5078261;28;20444;-63
2022/12/25 07:51:04;;;;;;;;;;;;;;;10.88;100.00;100056.03;5075481;28;19957;-63
2022/12/25 07:53:30;;;;;;;;;;;;;;;10.90;100.00;100062.16;5075351;28;19984;-62
2022/12/25 07:55:56;;;;;;;;;;;;;;;10.91;100.00;100064.78;5093517;28;19977;-63
2022/12/25 07:58:21;;;;;;;;;;;;;;;10.92;100.00;100061.22;5094702;28;19981;-62
2022/12/25 08:00:46;;;;;;;;;;;;;;;10.95;100.00;100062.88;5083077;28;19930;-62
2022/12/25 08:03:14;;;;;;;;;;;;;;;10.97;100.00;100069.88;5082003;28;19928;-62
2022/12/25 08:05:39;;;;;;;;;;;;;;;10.99;100.00;100075.19;5108010;28;19976;-63
2022/12/25 08:08:04;;;;;;;;;;;;;;;11.06;100.00;100076.69;5074414;28;19932;-63
2022/12/25 08:10:29;;;;;;;;;;;;;;;11.10;100.00;100078.34;5084804;28;19942;-63
2022/12/25 08:12:55;;;;;;;;;;;;;;;11.14;100.00;100069.31;5090026;28;19942;-63
2022/12/25 08:15:20;;;;;;;;;;;;;;;11.18;100.00;100068.31;5093947;28;19940;-62
2022/12/25 08:17:45;;;;;;;;;;;;;;;11.22;100.00;100062.81;5094327;28;20027;-62
2022/12/25 08:20:11;;;;;;;;;;;;;;;11.22;100.00;100051.31;5090342;28;20665;-63
2022/12/25 08:22:36;;;;;;;;;;;;;;;11.21;100.00;100044.25;5076512;28;19963;-63
2022/12/25 08:25:01;;;;;;;;;;;;;;;11.21;100.00;100039.78;5073941;28;19934;-63
2022/12/25 08:27:27;;;;;;;;;;;;;;;11.24;100.00;100015.72;5076066;28;20444;-63
2022/12/25 08:29:52;;;;;;;;;;;;;;;11.28;100.00;100000.50;5073723;28;19934;-63
2022/12/25 08:32:17;;;;;;;;;;;;;;;11.30;100.00;100007.50;5078817;28;20058;-62
2022/12/25 08:34:42;;;;;;;;;;;;;;;11.39;100.00;100012.50;5093710;28;19937;-62
2022/12/25 08:37:08;;;;;;;;;;;;;;;11.47;100.00;100029.09;5087631;28;19931;-63
2022/12/25 08:39:33;;;;;;;;;;;;;;;11.68;100.00;100022.13;5093831;28;19936;-63
2022/12/25 08:41:58;;;;;;;;;;;;;;;11.78;100.00;100023.53;5083387;28;19935;-63
2022/12/25 08:44:23;;;;;;;;;;;;;;;11.87;100.00;100031.19;5073581;28;19997;-62
2022/12/25 08:46:49;;;;;;;;;;;;;;;11.95;100.00;100031.75;5075867;28;19941;-63
2022/12/25 08:49:15;;;;;;;;;;;;;;;12.18;100.00;100031.75;5073239;28;20016;-62
2022/12/25 08:51:40;;;;;;;;;;;;;;;12.44;100.00;100038.72;5073435;28;20540;-63
2022/12/25 08:54:05;;;;;;;;;;;;;;;13.89;100.00;100038.69;5085704;28;19934;-63
2022/12/25 08:56:31;;;;;;;;;;;;;;;15.59;100.00;100033.81;5093314;28;19970;-64
2022/12/25 08:58:56;;;;;;;;;;;;;;;16.73;97.36;100036.44;5089621;28;19940;-63
2022/12/25 09:01:21;;;;;;;;;;;;;;;17.92;89.12;100038.16;5075572;28;19941;-63
2022/12/25 09:03:47;;;;;;;;;;;;;;;19.46;78.66;100044.22;5090246;28;19976;-63
2022/12/25 09:06:13;;;;;;;;;;;;;;;21.09;66.36;100054.06;5101310;28;19930;-64
2022/12/25 09:08:39;;;;;;;;;;;;;;;21.77;58.90;100046.94;5093309;28;19934;-63
2022/12/25 09:11:05;;;;;;;;;;;;;;;22.24;53.82;100052.19;5081089;28;19954;-63
2022/12/25 09:13:30;;;;;;;;;;;;;;;22.89;51.61;100058.59;5073129;28;20453;-64
2022/12/25 09:15:56;;;;;;;;;;;;;;;22.92;50.83;100062.88;5073014;28;19932;-63
2022/12/25 09:18:21;;;;;;;;;;;;;;;22.50;50.79;100063.66;5072837;28;19951;-63
2022/12/25 09:20:46;;;;;;;;;;;;;;;22.65;50.92;100057.03;5075016;28;19938;-64
2022/12/25 09:23:11;;;;;;;;;;;;;;;23.14;50.60;100055.56;5077644;28;19965;-64
2022/12/25 09:25:37;;;;;;;;;;;;;;;24.31;47.23;100049.06;5082723;28;19934;-63
2022/12/25 09:28:02;;;;;;;;;;;;;;;24.82;45.59;100049.00;5072773;28;19945;-64
2022/12/25 09:30:27;;;;;;;;;;;;;;;25.34;44.34;100046.78;5072529;28;20038;-64
2022/12/25 09:32:53;;;;;;;;;;;;;;;25.42;43.95;100052.41;5072368;28;19961;-63
2022/12/25 09:35:18;;;;;;;;;;;;;;;26.02;42.36;100047.66;5075063;28;20302;-64
2022/12/25 09:37:44;;;;;;;;;;;;;;;25.98;41.19;100036.16;5072540;28;19994;-64
2022/12/25 09:40:14;;;;;;;;;;;;;;;26.11;41.20;100034.03;5080400;28;19946;-63
2022/12/25 09:42:40;;;;;;;;;;;;;;;26.34;41.53;100031.78;5088811;28;19931;-63
2022/12/25 09:45:10;;;;;;;;;;;;;;;25.68;42.36;100042.66;5078272;28;19982;-64
2022/12/25 09:47:37;;;;;;;;;;;;;;;24.51;44.50;100034.56;5092279;28;20002;-64
2022/12/25 09:50:13;;;;;;;;;;;;;;;24.77;44.64;100029.50;5087099;28;20360;-64
2022/12/25 09:52:42;;;;;;;;;;;;;;;24.24;45.82;100027.00;5092652;28;19958;-64
2022/12/25 09:55:13;;;;;;;;;;;;;;;23.97;45.68;100021.22;5086332;28;19932;-63
2022/12/25 09:57:39;;;;;;;;;;;;;;;23.09;47.59;100018.94;5072218;28;19955;-62
2022/12/25 10:00:12;;;;;;;;;;;;;;;21.72;50.84;100008.50;5070906;28;19937;-64
2022/12/25 10:02:49;;;;;;;;;;;;;;;20.53;54.96;99998.72;5071148;28;20446;-63
2022/12/25 10:05:22;;;;;;;;;;;;;;;19.49;59.41;100003.53;5074064;28;20555;-64
2022/12/25 10:08:17;;;;;;;;;;;;;;;18.69;64.62;100006.28;5070269;28;19933;-62
2022/12/25 10:10:47;;;;;;;;;;;;;;;18.30;66.96;99992.69;5080846;28;19938;-63
2022/12/25 10:13:12;;;;;;;;;;;;;;;17.77;70.27;99988.03;5081910;28;20324;-62
2022/12/25 10:15:53;;;;;;;;;;;;;;;17.53;71.51;99994.91;5070945;28;19940;-62
2022/12/25 10:18:34;;;;;;;;;;;;;;;17.41;72.95;99990.25;5070915;28;20017;-62
2022/12/25 10:21:00;;;;;;;;;;;;;;;17.22;74.94;99981.56;5070836;28;19993;-63
2022/12/25 10:23:40;;;;;;;;;;;;;;;17.19;73.67;99987.13;5073631;28;19939;-62
2022/12/25 10:26:16;;;;;;;;;;;;;;;17.52;74.15;99990.50;5071793;28;19936;-62
2022/12/25 10:28:43;;;;;;;;;;;;;;;17.99;72.10;99974.09;5074267;28;19932;-63
2022/12/25 10:31:23;;;;;;;;;;;;;;;18.23;70.03;99970.69;5073089;28;19963;-63
2022/12/25 10:33:49;;;;;;;;;;;;;;;18.62;68.19;99974.44;5092154;28;20407;-63
2022/12/25 10:36:17;;;;;;;;;;;;;;;18.73;67.72;99977.31;5090761;28;20015;-63
2022/12/25 10:38:42;;;;;;;;;;;;;;;18.48;69.12;99971.81;5088102;28;20474;-64
2022/12/25 10:41:20;;;;;;;;;;;;;;;18.06;70.07;99968.19;5089558;28;20017;-64
2022/12/25 10:43:45;;;;;;;;;;;;;;;17.80;71.61;99968.13;5091943;28;19939;-62
2022/12/25 10:46:11;;;;;;;;;;;;;;;17.44;74.36;99971.25;5087052;28;19941;-63
2022/12/25 10:48:39;;;;;;;;;;;;;;;17.06;75.44;99960.13;5071365;28;19964;-62
2022/12/25 10:51:05;;;;;;;;;;;;;;;17.00;78.01;99959.63;5071281;28;19964;-62
2022/12/25 10:53:36;;;;;;;;;;;;;;;17.07;77.36;99951.09;5071384;28;19938;-62
2022/12/25 10:56:03;;;;;;;;;;;;;;;17.09;77.35;99938.44;5073482;28;19974;-62
2022/12/25 10:58:28;;;;;;;;;;;;;;;17.32;78.84;99945.09;5085942;28;19951;-62
2022/12/25 11:01:05;;;;;;;;;;;;;;;17.58;76.54;99938.13;5087371;28;19943;-63
2022/12/25 11:03:34;;;;;;;;;;;;;;;17.69;75.18;99935.66;5084122;28;20394;-61
2022/12/25 11:06:01;;;;;;;;;;;;;;;17.48;75.03;99934.31;5111998;28;20004;-62
2022/12/25 11:08:28;;;;;;;;;;;;;;;17.64;76.64;99927.88;5074836;28;19947;-62
2022/12/25 11:10:58;;;;;;;;;;;;;;;17.72;74.36;99922.88;5084771;28;19944;-62
2022/12/25 11:13:25;;;;;;;;;;;;;;;18.00;71.76;99916.59;5082847;28;19935;-62
2022/12/25 11:16:02;;;;;;;;;;;;;;;17.60;73.87;99923.63;5071302;28;19938;-63
2022/12/25 11:18:47;;;;;;;;;;;;;;;17.11;74.39;99916.84;5071189;28;19950;-62
2022/12/25 11:21:16;;;;;;;;;;;;;;;18.18;72.59;99921.66;5074667;28;19951;-63
2022/12/25 11:23:46;;;;;;;;;;;;;;;18.94;67.30;99895.00;5090467;28;19983;-64
2022/12/25 11:26:11;;;;;;;;;;;;;;;19.87;65.71;99909.94;5095474;28;19931;-63
2022/12/25 11:28:39;;;;;;;;;;;;;;;20.71;60.51;99918.97;5084709;28;19931;-63
2022/12/25 11:31:06;;;;;;;;;;;;;;;20.43;59.91;99912.06;5074778;28;19968;-63
2022/12/25 11:33:35;;;;;;;;;;;;;;;20.36;64.74;99908.09;5076094;28;20376;-64
2022/12/25 11:36:03;;;;;;;;;;;;;;;20.76;60.90;99896.03;5076413;28;19997;-64
2022/12/25 11:38:29;;;;;;;;;;;;;;;20.70;60.33;99888.38;5074581;28;19955;-63
2022/12/25 11:40:57;;;;;;;;;;;;;;;20.30;60.92;99881.53;5076330;28;19929;-64
2022/12/25 11:43:24;;;;;;;;;;;;;;;20.84;61.12;99871.97;5078779;28;19942;-63
2022/12/25 11:46:07;;;;;;;;;;;;;;;21.43;57.29;99880.00;5089790;28;20307;-64
2022/12/25 11:48:45;;;;;;;;;;;;;;;22.04;57.03;99872.25;5093794;28;20340;-64
2022/12/25 11:51:13;;;;;;;;;;;;;;;22.71;53.64;99863.97;5093211;28;20073;-64
2022/12/25 11:53:50;;;;;;;;;;;;;;;23.09;52.98;99861.56;5076536;28;19935;-63
2022/12/25 11:56:15;;;;;;;;;;;;;;;23.06;51.16;99846.38;5073115;28;19932;-63
2022/12/25 11:58:43;;;;;;;;;;;;;;;22.26;53.02;99848.84;5076527;28;20469;-64
2022/12/25 12:01:14;;;;;;;;;;;;;;;21.27;56.32;99847.03;5074227;28;20324;-63
2022/12/25 12:03:41;;;;;;;;;;;;;;;20.88;59.07;99834.72;5080829;28;19976;-62
2022/12/25 12:06:33;;;;;;;;;;;;;;;20.80;56.93;99838.03;5089016;28;20401;-62
2022/12/25 12:09:10;;;;;;;;;;;;;;;20.37;59.40;99839.59;5078037;28;19912;-63
2022/12/25 12:11:39;;;;;;;;;;;;;;;20.19;59.09;99830.16;5094196;28;19948;-62
2022/12/25 12:14:04;;;;;;;;;;;;;;;19.72;62.33;99840.00;5092267;28;19977;-63
2022/12/25 12:16:30;;;;;;;;;;;;;;;18.96;64.90;99848.09;5093578;28;19976;-62
2022/12/25 12:18:55;;;;;;;;;;;;;;;18.35;68.64;99856.75;5093617;28;19979;-62
2022/12/25 12:21:29;;;;;;;;;;;;;;;17.98;71.32;99864.69;5094216;28;19931;-62
2022/12/25 12:24:03;;;;;;;;;;;;;;;17.76;72.92;99861.66;5076581;28;19945;-62
2022/12/25 12:26:33;;;;;;;;;;;;;;;17.53;74.80;99855.03;5073891;28;19926;-62
2022/12/25 12:28:59;;;;;;;;;;;;;;;17.41;75.34;99842.34;5073670;28;19989;-63
2022/12/25 12:31:36;;;;;;;;;;;;;;;17.26;76.57;99835.25;5074257;28;19945;-63
2022/12/25 12:34:01;;;;;;;;;;;;;;;17.25;77.04;99825.44;5073612;28;20313;-62
2022/12/25 12:36:27;;;;;;;;;;;;;;;17.22;77.45;99808.63;5079945;28;19949;-63
2022/12/25 12:38:55;;;;;;;;;;;;;;;17.08;77.23;99818.41;5077588;28;19940;-63
2022/12/25 12:41:21;;;;;;;;;;;;;;;16.94;78.72;99809.50;5091227;28;19939;-63
2022/12/25 12:43:53;;;;;;;;;;;;;;;16.85;78.87;99816.28;5084450;28;20073;-63
2022/12/25 12:46:20;;;;;;;;;;;;;;;16.76;80.66;99824.06;5073612;28;19977;-63
2022/12/25 12:48:47;;;;;;;;;;;;;;;16.78;81.25;99827.50;5072727;28;20507;-63
2022/12/25 12:51:25;;;;;;;;;;;;;;;16.71;80.36;99839.56;5073064;28;20090;-63
2022/12/25 12:54:03;;;;;;;;;;;;;;;16.66;81.04;99839.00;5089835;28;20414;-63
2022/12/25 12:56:29;;;;;;;;;;;;;;;16.64;81.74;99835.53;5093073;28;20402;-63
2022/12/25 12:58:54;;;;;;;;;;;;;;;16.57;81.87;99834.19;5080284;28;19948;-63
2022/12/25 13:01:19;;;;;;;;;;;;;;;16.52;81.44;99842.50;5072553;28;19927;-62
2022/12/25 13:03:51;;;;;;;;;;;;;;;16.55;81.54;99836.97;5089633;28;19948;-63
2022/12/25 13:06:19;;;;;;;;;;;;;;;16.58;81.31;99850.22;5105256;28;19931;-63
2022/12/25 13:08:44;;;;;;;;;;;;;;;16.71;81.54;99853.88;5075307;28;19946;-63
2022/12/25 13:11:23;;;;;;;;;;;;;;;16.77;81.44;99839.22;5088353;28;20041;-63
2022/12/25 13:13:50;;;;;;;;;;;;;;;16.80;81.79;99834.50;5092401;28;20032;-62
2022/12/25 13:16:48;;;;;;;;;;;;;;;16.84;81.18;99830.69;5089685;28;19941;-63
2022/12/25 13:19:18;;;;;;;;;;;;;;;16.90;81.90;99833.00;5059969;28;20314;-63
2022/12/25 13:21:52;;;;;;;;;;;;;;;16.96;81.46;99829.06;5072459;28;19933;-63
2022/12/25 13:24:20;;;;;;;;;;;;;;;16.97;81.15;99825.41;5072118;28;19954;-63
2022/12/25 13:26:45;;;;;;;;;;;;;;;17.04;81.39;99832.16;5085408;28;20338;-63
2022/12/25 13:29:29;;;;;;;;;;;;;;;17.08;81.54;99828.34;5092456;28;19927;-63
2022/12/25 13:31:55;;;;;;;;;;;;;;;17.11;80.56;99822.75;5092294;28;19993;-63
2022/12/25 13:34:25;;;;;;;;;;;;;;;17.06;80.10;99819.50;5076439;28;19976;-64
2022/12/25 13:36:51;;;;;;;;;;;;;;;17.07;80.09;99830.16;5086657;28;19936;-62
2022/12/25 13:39:16;;;;;;;;;;;;;;;17.10;80.10;99831.75;5091935;28;20000;-63
2022/12/25 13:44:28;;;;;;;;;;;;;;;16.88;80.73;99836.75;5072173;28;19976;-63
2022/12/25 13:46:54;;;;;;;;;;;;;;;16.74;80.59;99824.16;5074219;28;19942;-62
2022/12/25 13:49:20;;;;;;;;;;;;;;;16.71;81.88;99828.84;5071355;28;19975;-63
2022/12/25 13:51:46;;;;;;;;;;;;;;;16.65;81.85;99816.66;5071608;28;19954;-63
2022/12/25 13:54:12;;;;;;;;;;;;;;;16.58;82.42;99817.09;5071456;28;20303;-63
2022/12/25 13:56:45;;;;;;;;;;;;;;;16.49;83.36;99817.69;5088644;28;20422;-63
2022/12/25 13:59:18;;;;;;;;;;;;;;;16.43;84.06;99818.00;5092045;28;19937;-63
2022/12/25 14:01:44;;;;;;;;;;;;;;;16.28;84.48;99819.75;5087475;28;19934;-63
2022/12/25 14:04:17;;;;;;;;;;;;;;;16.21;84.84;99814.84;5103668;28;20420;-63
2022/12/25 14:06:42;;;;;;;;;;;;;;;16.14;85.74;99811.66;5104497;28;19927;-63
2022/12/25 14:09:08;;;;;;;;;;;;;;;16.07;85.93;99806.72;5071526;28;20096;-63
2022/12/25 14:11:34;;;;;;;;;;;;;;;15.97;86.48;99798.34;5090895;28;19954;-62
2022/12/25 14:14:01;;;;;;;;;;;;;;;15.82;87.91;99794.75;5078286;28;19939;-62
2022/12/25 14:16:27;;;;;;;;;;;;;;;15.80;89.01;99801.13;5078063;28;19934;-62
2022/12/25 14:18:56;;;;;;;;;;;;;;;15.68;89.92;99794.66;5087120;28;20338;-63
2022/12/25 14:21:28;;;;;;;;;;;;;;;15.66;90.32;99795.69;5070973;28;19962;-62
2022/12/25 14:23:53;;;;;;;;;;;;;;;15.53;90.27;99802.72;5070464;28;19940;-62
2022/12/25 14:26:21;;;;;;;;;;;;;;;15.57;91.21;99788.16;5072719;28;20029;-63
2022/12/25 14:28:48;;;;;;;;;;;;;;;15.56;90.25;99798.03;5070238;28;19961;-62